Time;durP1;ratioP1;P1;durP2;ratioP2;P2;SDS_P1;SDS_P2;PMS_P1;PMS_P2;Temp;Humidity;BMP_temperature;BMP_pressure;BME280_temperature;BME280_humidity;BME280_pressure;Samples;Min_cycle;Max_cycle;Signal;HPM_P1;HPM_P2
2022/01/04 00:02:21;;;;;;;12.95;9.48;;;9.10;99.90;;;;;;4931587;29;20251;-67
2022/01/04 00:04:49;;;;;;;11.18;10.07;;;9.10;99.90;;;;;;4933123;29;20290;-68
2022/01/04 00:07:19;;;;;;;16.10;10.48;;;9.00;99.90;;;;;;4930499;29;20244;-67
2022/01/04 00:09:46;;;;;;;12.27;11.10;;;9.00;99.90;;;;;;4930744;29;20247;-68
2022/01/04 00:15:00;;;;;;;16.73;10.95;;;9.00;99.90;;;;;;4954819;29;20226;-67
2022/01/04 00:17:28;;;;;;;12.07;8.80;;;9.20;99.90;;;;;;4955195;29;20267;-68
2022/01/04 00:19:56;;;;;;;12.27;11.02;;;9.30;99.90;;;;;;4954644;29;20743;-66
2022/01/04 00:22:25;;;;;;;11.07;9.98;;;9.40;99.90;;;;;;4949586;29;20302;-68
2022/01/04 00:24:53;;;;;;;10.98;9.88;;;9.40;99.90;;;;;;4942125;29;20211;-67
2022/01/04 00:27:21;;;;;;;11.40;9.93;;;9.40;99.90;;;;;;4937223;29;20708;-67
2022/01/04 00:29:49;;;;;;;10.70;9.60;;;9.30;99.90;;;;;;4939000;29;20676;-68
2022/01/04 00:32:17;;;;;;;11.48;10.23;;;9.20;99.90;;;;;;4954194;28;20265;-68
2022/01/04 00:34:45;;;;;;;10.45;9.45;;;9.20;99.90;;;;;;4950777;29;20571;-68
2022/01/04 00:37:13;;;;;;;12.60;10.82;;;9.10;99.90;;;;;;4936167;29;20255;-68
2022/01/04 00:39:42;;;;;;;10.90;9.80;;;9.30;99.90;;;;;;4936020;29;20295;-68
2022/01/04 00:42:11;;;;;;;12.45;11.35;;;9.30;99.90;;;;;;4935325;29;20239;-67
2022/01/04 00:44:39;;;;;;;13.10;9.02;;;9.20;99.90;;;;;;4935969;29;20247;-68
2022/01/04 00:47:08;;;;;;;11.98;10.98;;;9.40;99.90;;;;;;4936071;29;20652;-67
2022/01/04 00:49:35;;;;;;;11.30;10.23;;;9.40;99.90;;;;;;4936017;29;20231;-69
2022/01/04 00:52:05;;;;;;;9.95;9.05;;;9.30;99.90;;;;;;4932067;29;20240;-67
2022/01/04 00:54:34;;;;;;;9.38;8.68;;;9.60;99.90;;;;;;4932002;29;20199;-68
2022/01/04 00:57:03;;;;;;;11.25;10.35;;;9.10;99.90;;;;;;4953926;29;20254;-69
2022/01/04 00:59:31;;;;;;;10.70;9.70;;;9.10;99.90;;;;;;4954073;29;20266;-68
2022/01/04 01:01:59;;;;;;;11.65;10.48;;;9.00;99.90;;;;;;4953999;28;20254;-68
2022/01/04 01:04:28;;;;;;;10.70;9.80;;;9.00;99.90;;;;;;4954008;29;20660;-68
2022/01/04 01:06:56;;;;;;;10.82;9.93;;;9.00;99.90;;;;;;4953994;29;20286;-68
2022/01/04 01:09:28;;;;;;;10.02;9.13;;;9.00;99.90;;;;;;4954037;29;20290;-68
2022/01/04 01:11:57;;;;;;;11.25;10.25;;;9.00;99.90;;;;;;4953747;28;20657;-68
2022/01/04 01:14:26;;;;;;;11.30;10.23;;;9.00;99.90;;;;;;4953649;29;20615;-67
2022/01/04 01:16:54;;;;;;;9.40;8.60;;;9.00;99.90;;;;;;4953594;28;20235;-67
2022/01/04 01:19:21;;;;;;;8.93;8.15;;;9.00;99.90;;;;;;4953719;29;20223;-68
2022/01/04 01:21:49;;;;;;;9.35;8.45;;;9.00;99.90;;;;;;4950582;29;20693;-67
2022/01/04 01:24:20;;;;;;;8.38;7.68;;;9.20;99.90;;;;;;4929759;29;20596;-68
2022/01/04 01:26:48;;;;;;;8.60;7.90;;;9.20;99.90;;;;;;4945456;29;20231;-68
2022/01/04 01:29:16;;;;;;;9.15;8.38;;;9.10;99.90;;;;;;4929013;29;20680;-68
2022/01/04 01:31:45;;;;;;;9.63;8.82;;;9.10;99.90;;;;;;4928962;29;20216;-68
2022/01/04 01:34:13;;;;;;;9.70;9.00;;;9.10;99.90;;;;;;4943092;28;20295;-68
2022/01/04 01:36:41;;;;;;;8.00;7.40;;;9.10;99.90;;;;;;4947341;29;20250;-68
2022/01/04 01:39:09;;;;;;;10.63;8.90;;;9.10;99.90;;;;;;4953620;29;20257;-67
2022/01/04 01:41:36;;;;;;;8.20;7.60;;;9.20;99.90;;;;;;4953295;29;20685;-68
2022/01/04 01:44:05;;;;;;;10.45;9.55;;;9.10;99.90;;;;;;4953806;28;20333;-68
2022/01/04 01:46:33;;;;;;;10.35;9.45;;;9.00;99.90;;;;;;4953398;29;20231;-68
2022/01/04 01:49:02;;;;;;;11.30;10.15;;;9.10;99.90;;;;;;4953162;29;20663;-68
2022/01/04 01:51:31;;;;;;;11.07;10.07;;;9.10;99.90;;;;;;4952750;29;20688;-68
2022/01/04 01:53:59;;;;;;;10.20;9.30;;;9.10;99.90;;;;;;4932709;29;20248;-69
2022/01/04 01:56:29;;;;;;;10.80;9.80;;;9.10;99.90;;;;;;4939380;29;20259;-68
2022/01/04 01:58:57;;;;;;;9.98;9.18;;;9.10;99.90;;;;;;4934814;29;20243;-67
2022/01/04 02:01:25;;;;;;;11.02;9.85;;;9.10;99.90;;;;;;4934854;29;20307;-67
2022/01/04 02:03:53;;;;;;;9.73;8.93;;;9.10;99.90;;;;;;4934198;29;20292;-67
2022/01/04 02:06:23;;;;;;;9.35;8.55;;;9.10;99.90;;;;;;4934447;29;20239;-68
2022/01/04 02:08:51;;;;;;;9.15;8.35;;;9.30;99.90;;;;;;4934483;29;20211;-67
2022/01/04 02:11:22;;;;;;;11.02;9.65;;;9.40;99.90;;;;;;4934875;29;20246;-67
2022/01/04 02:13:50;;;;;;;9.18;8.38;;;9.40;99.90;;;;;;4934163;29;20251;-68
2022/01/04 02:16:19;;;;;;;8.95;8.18;;;9.30;99.90;;;;;;4934455;29;20247;-67
2022/01/04 02:18:47;;;;;;;10.00;9.10;;;9.30;99.90;;;;;;4934485;29;20207;-67
2022/01/04 02:21:17;;;;;;;8.60;7.88;;;9.20;99.90;;;;;;4934543;29;20246;-67
2022/01/04 02:23:45;;;;;;;9.88;8.88;;;9.20;99.90;;;;;;4933516;29;20223;-67
2022/01/04 02:26:13;;;;;;;9.77;8.88;;;9.10;99.90;;;;;;4934215;29;20331;-67
2022/01/04 02:28:42;;;;;;;9.73;8.93;;;9.20;99.90;;;;;;4934168;29;20232;-67
2022/01/04 02:31:10;;;;;;;9.30;8.52;;;9.20;99.90;;;;;;4934338;29;20633;-67
2022/01/04 02:33:38;;;;;;;8.75;7.95;;;9.30;99.90;;;;;;4934037;29;20701;-67
2022/01/04 02:36:06;;;;;;;9.38;8.25;;;9.30;99.90;;;;;;4943368;29;20290;-67
2022/01/04 02:38:37;;;;;;;8.25;7.55;;;9.50;99.90;;;;;;4952635;28;20342;-67
2022/01/04 02:41:04;;;;;;;10.13;9.13;;;9.80;99.90;;;;;;4935325;29;20231;-67
2022/01/04 02:43:32;;;;;;;8.88;8.18;;;9.90;99.90;;;;;;4949491;28;20302;-67
2022/01/04 02:46:00;;;;;;;7.75;7.05;;;9.90;99.90;;;;;;4952453;29;20234;-67
2022/01/04 02:48:28;;;;;;;6.15;5.75;;;10.00;99.90;;;;;;4952749;29;20203;-67
2022/01/04 02:50:57;;;;;;;5.85;5.35;;;10.00;99.90;;;;;;4952667;29;20238;-67
2022/01/04 02:53:24;;;;;;;5.97;5.53;;;10.10;99.90;;;;;;4938897;29;20291;-68
2022/01/04 02:55:54;;;;;;;6.93;6.43;;;10.00;99.90;;;;;;4940035;29;20641;-67
2022/01/04 02:58:21;;;;;;;5.82;5.43;;;9.90;99.90;;;;;;4933831;29;20322;-68
2022/01/04 03:00:49;;;;;;;9.60;8.80;;;10.00;99.90;;;;;;4934328;29;20612;-67
2022/01/04 03:03:18;;;;;;;10.35;9.55;;;9.80;99.90;;;;;;4933512;29;20756;-67
2022/01/04 03:05:46;;;;;;;9.55;8.75;;;9.70;99.90;;;;;;4934051;29;20651;-67
2022/01/04 03:08:13;;;;;;;11.98;10.75;;;9.70;99.90;;;;;;4933925;29;20236;-68
2022/01/04 03:10:41;;;;;;;10.88;9.98;;;9.60;99.90;;;;;;4933859;29;20215;-68
2022/01/04 03:13:10;;;;;;;12.23;11.23;;;9.50;99.90;;;;;;4933514;29;20274;-65
2022/01/04 03:15:38;;;;;;;12.30;11.15;;;9.50;99.90;;;;;;4934007;29;20682;-68
2022/01/04 03:18:06;;;;;;;12.77;11.57;;;9.40;99.90;;;;;;4933942;29;20252;-69
2022/01/04 03:20:35;;;;;;;13.18;12.00;;;9.50;99.90;;;;;;4934001;29;20212;-68
2022/01/04 03:23:04;;;;;;;14.70;13.25;;;9.40;99.90;;;;;;4925241;29;20303;-65
2022/01/04 03:25:32;;;;;;;14.73;13.52;;;9.40;99.90;;;;;;4940694;29;20211;-67
2022/01/04 03:28:00;;;;;;;14.70;13.32;;;9.40;99.90;;;;;;4952297;29;20227;-67
2022/01/04 03:30:29;;;;;;;14.98;13.57;;;9.50;99.90;;;;;;4952082;29;20618;-67
2022/01/04 03:32:57;;;;;;;13.70;12.45;;;9.40;99.90;;;;;;4951883;28;20675;-67
2022/01/04 03:35:25;;;;;;;15.40;13.75;;;9.40;99.90;;;;;;4943259;29;20230;-67
2022/01/04 03:37:53;;;;;;;14.73;13.20;;;9.50;99.90;;;;;;4933602;29;20282;-67
2022/01/04 03:40:21;;;;;;;13.07;11.90;;;9.50;99.90;;;;;;4935981;29;20295;-67
2022/01/04 03:42:49;;;;;;;11.90;10.75;;;9.50;99.90;;;;;;4936734;29;20331;-66
2022/01/04 03:45:17;;;;;;;10.13;9.02;;;9.50;99.90;;;;;;4932935;29;20639;-67
2022/01/04 03:47:46;;;;;;;10.32;9.32;;;9.50;99.90;;;;;;4942325;29;20781;-67
2022/01/04 03:50:14;;;;;;;8.27;7.57;;;9.50;99.90;;;;;;4955258;29;20627;-67
2022/01/04 03:52:42;;;;;;;7.70;5.85;;;9.60;99.90;;;;;;4949898;29;20266;-68
2022/01/04 03:55:10;;;;;;;6.25;5.63;;;9.60;99.90;;;;;;4932254;29;20570;-67
2022/01/04 03:57:38;;;;;;;6.20;5.78;;;9.60;99.90;;;;;;4955251;29;20306;-67
2022/01/04 04:00:08;;;;;;;6.40;4.85;;;9.60;99.90;;;;;;4955262;29;20227;-67
2022/01/04 04:02:36;;;;;;;4.55;4.22;;;9.60;99.90;;;;;;4930455;29;20680;-67
2022/01/04 04:05:06;;;;;;;4.03;3.72;;;9.70;99.90;;;;;;4930581;29;20208;-67
2022/01/04 04:07:34;;;;;;;5.35;4.00;;;9.70;99.90;;;;;;4936721;29;20584;-67
2022/01/04 04:10:02;;;;;;;5.88;3.85;;;9.70;99.90;;;;;;4936803;29;20345;-67
2022/01/04 04:12:30;;;;;;;3.35;3.05;;;9.70;99.90;;;;;;4936469;29;20310;-67
2022/01/04 04:15:03;;;;;;;4.47;3.30;;;9.70;99.90;;;;;;4936430;29;20208;-66
2022/01/04 04:17:31;;;;;;;3.47;3.17;;;9.70;99.90;;;;;;4936481;29;20262;-68
2022/01/04 04:19:59;;;;;;;3.28;2.97;;;9.70;99.90;;;;;;4936579;29;20479;-67
2022/01/04 04:22:28;;;;;;;3.50;3.20;;;9.80;99.90;;;;;;4932276;29;20728;-67
2022/01/04 04:24:56;;;;;;;3.33;3.10;;;9.80;99.90;;;;;;4934564;29;20308;-67
2022/01/04 04:27:25;;;;;;;3.40;3.20;;;9.80;99.90;;;;;;4936382;29;20243;-68
2022/01/04 04:29:53;;;;;;;3.60;2.60;;;9.80;99.90;;;;;;4936317;29;20227;-67
2022/01/04 04:32:21;;;;;;;3.13;2.92;;;9.80;99.90;;;;;;4936272;29;20232;-67
2022/01/04 04:34:48;;;;;;;3.58;2.75;;;9.80;99.90;;;;;;4937843;29;20199;-67
2022/01/04 04:37:16;;;;;;;2.40;2.30;;;9.80;99.90;;;;;;4954485;29;20231;-68
2022/01/04 04:39:45;;;;;;;2.35;2.13;;;9.80;99.90;;;;;;4954485;29;20306;-68
2022/01/04 04:42:13;;;;;;;2.70;2.60;;;9.80;99.90;;;;;;4953927;28;20321;-67
2022/01/04 04:44:41;;;;;;;2.90;2.70;;;9.80;99.90;;;;;;4954330;29;20207;-67
2022/01/04 04:47:09;;;;;;;3.83;2.72;;;9.90;99.90;;;;;;4954360;29;20215;-68
2022/01/04 04:49:37;;;;;;;3.47;2.10;;;9.90;99.90;;;;;;4954435;29;20863;-68
2022/01/04 04:52:05;;;;;;;3.20;2.35;;;9.80;99.90;;;;;;4943115;28;20311;-67
2022/01/04 04:54:33;;;;;;;2.50;2.30;;;9.80;99.90;;;;;;4936488;29;20690;-69
2022/01/04 04:57:03;;;;;;;2.85;2.25;;;9.80;99.90;;;;;;4935958;29;20231;-67
2022/01/04 04:59:31;;;;;;;2.05;1.90;;;9.80;99.90;;;;;;4935817;29;20930;-67
2022/01/04 05:01:59;;;;;;;2.90;2.35;;;9.90;99.90;;;;;;4935640;29;20212;-66
2022/01/04 05:04:27;;;;;;;2.55;1.98;;;9.90;99.90;;;;;;4935785;29;20600;-67
2022/01/04 05:06:55;;;;;;;2.60;2.28;;;9.80;99.90;;;;;;4935813;29;20295;-68
2022/01/04 05:09:23;;;;;;;3.22;2.10;;;9.80;99.90;;;;;;4935460;29;20306;-69
2022/01/04 05:11:51;;;;;;;2.58;2.08;;;9.80;99.90;;;;;;4935388;29;20730;-69
2022/01/04 05:14:20;;;;;;;3.20;1.80;;;9.80;99.90;;;;;;4935283;29;20283;-68
2022/01/04 05:16:48;;;;;;;2.80;2.58;;;9.80;99.90;;;;;;4935567;29;20659;-68
2022/01/04 05:19:18;;;;;;;4.10;1.90;;;9.80;99.90;;;;;;4935367;29;20331;-69
2022/01/04 05:21:46;;;;;;;2.28;2.00;;;9.80;99.90;;;;;;4935178;29;20237;-68
2022/01/04 05:24:14;;;;;;;1.90;1.80;;;9.80;99.90;;;;;;4936838;29;20699;-68
2022/01/04 05:26:41;;;;;;;2.00;1.90;;;9.80;99.90;;;;;;4932910;29;20661;-68
2022/01/04 05:29:09;;;;;;;3.90;2.10;;;9.80;99.90;;;;;;4938921;29;20223;-68
2022/01/04 05:31:38;;;;;;;1.50;1.40;;;9.80;99.90;;;;;;4953726;29;20289;-68
2022/01/04 05:34:06;;;;;;;1.90;1.80;;;9.80;99.90;;;;;;4953034;28;20612;-67
2022/01/04 05:36:35;;;;;;;1.55;1.45;;;9.70;99.90;;;;;;4936037;29;20299;-68
2022/01/04 05:39:03;;;;;;;1.77;1.67;;;9.70;99.90;;;;;;4935021;29;20310;-68
2022/01/04 05:41:31;;;;;;;2.30;1.63;;;9.70;99.90;;;;;;4935081;29;20231;-68
2022/01/04 05:43:59;;;;;;;1.70;1.60;;;9.70;99.90;;;;;;4934735;29;20295;-65
2022/01/04 05:46:27;;;;;;;1.60;1.50;;;9.80;99.90;;;;;;4944074;29;20243;-68
2022/01/04 05:48:56;;;;;;;2.83;1.90;;;9.80;99.90;;;;;;4953288;29;20211;-67
2022/01/04 05:51:24;;;;;;;2.05;1.95;;;9.90;99.90;;;;;;4944147;29;20207;-68
2022/01/04 05:53:52;;;;;;;1.77;1.67;;;10.00;99.90;;;;;;4933757;29;20341;-66
2022/01/04 05:56:20;;;;;;;5.25;1.98;;;10.00;99.90;;;;;;4936040;29;20235;-68
2022/01/04 05:58:48;;;;;;;1.92;1.83;;;10.00;99.90;;;;;;4927720;29;20641;-68
2022/01/04 06:01:16;;;;;;;2.22;2.03;;;10.00;99.90;;;;;;4927283;29;20254;-68
2022/01/04 06:03:44;;;;;;;1.67;1.58;;;10.10;99.90;;;;;;4923282;29;20233;-66
2022/01/04 06:06:13;;;;;;;1.70;1.60;;;10.40;99.90;;;;;;4928337;29;20243;-68
2022/01/04 06:08:41;;;;;;;0.90;0.90;;;10.50;99.90;;;;;;4928890;29;20649;-68
2022/01/04 06:11:28;;;;;;;1.08;0.70;;;10.50;99.90;;;;;;4923978;29;20216;-67
2022/01/04 06:16:41;;;;;;;0.70;0.70;;;10.40;99.90;;;;;;4935067;29;20195;-68
2022/01/04 06:19:09;;;;;;;1.05;0.70;;;10.30;99.90;;;;;;4930070;29;20256;-68
2022/01/04 06:21:38;;;;;;;0.90;0.90;;;10.40;99.90;;;;;;4934483;29;20235;-67
2022/01/04 06:24:06;;;;;;;1.33;0.60;;;10.60;99.90;;;;;;4930426;29;20252;-68
2022/01/04 06:26:34;;;;;;;2.40;2.20;;;10.40;99.90;;;;;;4932227;29;20200;-67
2022/01/04 06:29:03;;;;;;;1.60;1.50;;;10.10;99.90;;;;;;4934393;29;20583;-68
2022/01/04 06:31:31;;;;;;;2.38;2.00;;;9.90;99.90;;;;;;4934258;29;20227;-68
2022/01/04 06:33:59;;;;;;;4.25;1.60;;;9.80;99.90;;;;;;4931581;29;20583;-68
2022/01/04 06:36:27;;;;;;;3.22;2.65;;;9.90;99.90;;;;;;4930483;29;20239;-68
2022/01/04 06:38:56;;;;;;;3.70;2.78;;;10.00;99.90;;;;;;4924058;29;20219;-68
2022/01/04 06:41:24;;;;;;;2.67;1.92;;;9.80;99.90;;;;;;4925483;29;20253;-68
2022/01/04 06:43:52;;;;;;;5.57;4.18;;;9.80;99.90;;;;;;4922096;29;20676;-68
2022/01/04 06:46:20;;;;;;;3.83;2.70;;;9.80;99.90;;;;;;4928012;29;20242;-67
2022/01/04 06:48:48;;;;;;;1.98;1.67;;;9.80;99.90;;;;;;4932026;29;20214;-67
2022/01/04 06:51:15;;;;;;;1.67;1.58;;;9.60;99.90;;;;;;4950438;29;20234;-67
2022/01/04 06:53:44;;;;;;;1.35;1.23;;;9.70;99.90;;;;;;4926037;29;20258;-67
2022/01/04 06:56:14;;;;;;;1.13;0.85;;;9.80;99.90;;;;;;4925486;29;20676;-68
2022/01/04 06:58:42;;;;;;;0.60;0.50;;;9.60;99.90;;;;;;4923365;29;20251;-67
2022/01/04 07:01:10;;;;;;;1.00;0.80;;;9.50;99.90;;;;;;4929043;29;20247;-67
2022/01/04 07:03:38;;;;;;;3.85;1.88;;;9.40;99.90;;;;;;4927951;28;20220;-67
2022/01/04 07:06:06;;;;;;;1.27;1.10;;;9.30;99.90;;;;;;4927521;29;20295;-67
2022/01/04 07:08:33;;;;;;;0.95;0.88;;;9.10;99.90;;;;;;4927873;29;20251;-68
2022/01/04 07:11:01;;;;;;;1.25;1.08;;;9.10;99.90;;;;;;4928796;29;20204;-68
2022/01/04 07:13:31;;;;;;;0.90;0.80;;;9.10;99.90;;;;;;4944209;29;20318;-68
2022/01/04 07:15:59;;;;;;;0.90;0.50;;;9.10;99.90;;;;;;4950442;29;20208;-68
2022/01/04 07:18:27;;;;;;;2.05;0.85;;;8.90;99.90;;;;;;4936298;29;20319;-68
2022/01/04 07:20:55;;;;;;;0.88;0.55;;;8.90;99.90;;;;;;4932060;29;20664;-68
2022/01/04 07:23:23;;;;;;;1.38;0.90;;;8.70;99.90;;;;;;4936508;29;20254;-68
2022/01/04 07:25:51;;;;;;;0.70;0.60;;;8.90;99.90;;;;;;4928393;29;20283;-69
2022/01/04 07:28:20;;;;;;;6.65;0.90;;;8.80;99.90;;;;;;4937286;29;20232;-69
2022/01/04 07:30:49;;;;;;;6.95;1.15;;;10.10;99.90;;;;;;4937294;29;20247;-71
2022/01/04 07:33:17;;;;;;;6.15;1.65;;;10.70;99.90;;;;;;4928194;29;20280;-70
2022/01/04 07:35:46;;;;;;;2.35;0.70;;;10.80;99.90;;;;;;4927884;29;20712;-71
2022/01/04 07:38:14;;;;;;;2.15;0.40;;;11.20;99.90;;;;;;4940629;29;20239;-70
2022/01/04 07:40:41;;;;;;;2.67;0.80;;;11.00;99.90;;;;;;4929769;29;20270;-70
2022/01/04 07:43:12;;;;;;;0.60;0.50;;;10.60;99.90;;;;;;4930448;29;20326;-70
2022/01/04 07:45:40;;;;;;;0.60;0.50;;;10.20;99.90;;;;;;4926349;29;20700;-70
2022/01/04 07:48:10;;;;;;;3.92;0.80;;;9.60;99.90;;;;;;4923777;29;20231;-70
2022/01/04 07:50:38;;;;;;;2.72;0.90;;;9.60;99.90;;;;;;4926300;29;21054;-71
2022/01/04 07:53:07;;;;;;;1.20;0.60;;;9.90;99.90;;;;;;4924799;29;20792;-71
2022/01/04 07:55:35;;;;;;;0.60;0.40;;;9.50;99.90;;;;;;4935582;29;20250;-70
2022/01/04 07:58:03;;;;;;;0.90;0.60;;;9.20;99.90;;;;;;4931846;29;20239;-70
2022/01/04 08:00:31;;;;;;;0.88;0.55;;;8.90;99.90;;;;;;4938497;29;20326;-71
2022/01/04 08:02:59;;;;;;;1.10;0.57;;;9.10;99.90;;;;;;4929606;29;20256;-70
2022/01/04 08:05:29;;;;;;;1.30;1.08;;;8.80;99.90;;;;;;4944670;29;20211;-70
2022/01/04 08:07:56;;;;;;;2.75;0.70;;;8.80;99.90;;;;;;4950041;29;20272;-71
2022/01/04 08:10:24;;;;;;;0.60;0.50;;;8.60;99.90;;;;;;4941309;29;20256;-70
2022/01/04 08:12:52;;;;;;;2.90;0.60;;;8.40;99.90;;;;;;4928664;29;20609;-70
2022/01/04 08:15:20;;;;;;;0.70;0.65;;;8.30;99.90;;;;;;4931465;29;20244;-71
2022/01/04 08:17:48;;;;;;;0.70;0.65;;;8.60;99.90;;;;;;4949907;29;20306;-70
2022/01/04 08:20:17;;;;;;;0.60;0.60;;;8.60;99.90;;;;;;4950260;29;20333;-70
2022/01/04 08:22:46;;;;;;;0.80;0.70;;;8.80;99.90;;;;;;4938471;29;20254;-70
2022/01/04 08:25:14;;;;;;;0.50;0.50;;;9.00;99.90;;;;;;4924918;29;20246;-67
2022/01/04 08:27:42;;;;;;;0.60;0.60;;;9.00;99.90;;;;;;4930777;29;20216;-70
2022/01/04 08:30:12;;;;;;;0.70;0.60;;;9.80;99.90;;;;;;4931492;29;20904;-71
2022/01/04 08:32:41;;;;;;;1.02;0.50;;;9.80;99.90;;;;;;4923892;29;20721;-72
2022/01/04 08:35:10;;;;;;;0.60;0.47;;;9.30;99.90;;;;;;4925482;29;20219;-71
2022/01/04 08:37:38;;;;;;;0.95;0.60;;;9.50;99.90;;;;;;4933524;29;20737;-70
2022/01/04 08:40:09;;;;;;;0.80;0.80;;;9.40;99.90;;;;;;4926033;29;20315;-70
2022/01/04 08:42:37;;;;;;;0.95;0.70;;;9.70;99.90;;;;;;4924195;29;20676;-70
2022/01/04 08:45:08;;;;;;;0.88;0.65;;;10.10;99.90;;;;;;4936076;29;20700;-70
2022/01/04 08:47:37;;;;;;;1.35;0.63;;;11.10;99.90;;;;;;4931098;29;20208;-70
2022/01/04 08:50:08;;;;;;;2.53;0.95;;;11.70;99.90;;;;;;4931335;29;20302;-71
2022/01/04 08:52:35;;;;;;;0.80;0.70;;;11.70;99.90;;;;;;4928708;29;20314;-70
2022/01/04 08:55:05;;;;;;;0.70;0.70;;;11.10;99.90;;;;;;4936700;29;20235;-69
2022/01/04 08:57:34;;;;;;;0.85;0.73;;;11.10;99.90;;;;;;4930265;29;20728;-72
2022/01/04 09:00:03;;;;;;;1.23;0.60;;;11.20;99.90;;;;;;4947494;29;20861;-72
2022/01/04 09:02:32;;;;;;;1.35;1.08;;;11.10;99.90;;;;;;4927368;29;20224;-71
2022/01/04 09:05:01;;;;;;;1.38;0.80;;;10.90;99.90;;;;;;4930497;29;20204;-71
2022/01/04 09:07:29;;;;;;;0.70;0.60;;;10.60;99.90;;;;;;4934986;29;20215;-71
2022/01/04 09:09:57;;;;;;;1.83;0.70;;;10.40;99.90;;;;;;4938145;29;20573;-71
2022/01/04 09:12:37;;;;;;;0.80;0.80;;;10.20;99.90;;;;;;4927076;29;20236;-72
2022/01/04 09:15:29;;;;;;;1.05;0.82;;;10.00;99.90;;;;;;4921502;29;20204;-72
2022/01/04 09:20:47;;;;;;;0.85;0.80;;;9.70;99.90;;;;;;4949010;29;20238;-71
2022/01/04 09:23:15;;;;;;;1.20;0.90;;;9.60;99.90;;;;;;4917087;29;20768;-71
2022/01/04 09:25:43;;;;;;;1.23;0.80;;;9.50;99.90;;;;;;4936654;29;20250;-73
2022/01/04 09:28:16;;;;;;;1.35;1.25;;;9.50;99.90;;;;;;4949045;29;20705;-71
2022/01/04 09:30:47;;;;;;;2.40;1.23;;;9.40;99.90;;;;;;4948486;28;20210;-71
2022/01/04 09:33:15;;;;;;;1.42;1.20;;;9.40;99.90;;;;;;4921594;29;20287;-71
2022/01/04 09:35:44;;;;;;;1.45;1.35;;;9.30;99.90;;;;;;4933664;29;20294;-72
2022/01/04 09:38:12;;;;;;;1.30;1.20;;;9.10;99.90;;;;;;4934835;29;20271;-71
2022/01/04 09:40:40;;;;;;;1.30;1.20;;;9.10;99.90;;;;;;4933450;29;20251;-71
2022/01/04 09:43:09;;;;;;;1.02;0.82;;;9.00;99.90;;;;;;4922550;29;20754;-72
2022/01/04 09:45:37;;;;;;;0.85;0.82;;;8.80;99.90;;;;;;4932311;29;20307;-71
2022/01/04 09:48:07;;;;;;;0.80;0.75;;;8.90;99.90;;;;;;4930144;29;20352;-71
2022/01/04 09:50:38;;;;;;;1.30;1.20;;;8.70;99.90;;;;;;4930067;29;20258;-71
2022/01/04 09:53:07;;;;;;;1.75;1.20;;;8.50;99.90;;;;;;4931452;29;20246;-71
2022/01/04 09:55:38;;;;;;;1.33;0.98;;;8.40;99.90;;;;;;4925359;29;20294;-71
2022/01/04 09:58:06;;;;;;;0.80;0.70;;;8.30;99.90;;;;;;4929769;29;20211;-71
2022/01/04 10:00:34;;;;;;;1.60;0.90;;;8.30;99.90;;;;;;4928902;29;20224;-72
2022/01/04 10:03:13;;;;;;;1.00;0.90;;;8.20;99.90;;;;;;4919445;29;20303;-72
2022/01/04 10:05:42;;;;;;;1.10;0.90;;;8.10;99.90;;;;;;4927600;29;20563;-71
2022/01/04 10:08:12;;;;;;;0.70;0.60;;;8.10;99.90;;;;;;4929679;29;20925;-71
2022/01/04 10:10:41;;;;;;;1.88;0.55;;;8.10;99.90;;;;;;4930073;29;20208;-71
2022/01/04 10:13:10;;;;;;;0.60;0.50;;;8.10;99.90;;;;;;4925185;28;20287;-73
2022/01/04 10:15:41;;;;;;;0.70;0.70;;;8.20;99.90;;;;;;4937228;29;20302;-72
2022/01/04 10:18:24;;;;;;;0.60;0.57;;;8.20;99.90;;;;;;4935001;28;20269;-71
2022/01/04 10:21:12;;;;;;;0.88;0.60;;;8.10;99.90;;;;;;4945842;29;20222;-69
2022/01/04 10:23:48;;;;;;;1.15;0.60;;;8.00;99.90;;;;;;4923413;29;20287;-72
2022/01/04 10:26:17;;;;;;;0.60;0.50;;;8.00;99.90;;;;;;4946994;29;20242;-72
2022/01/04 10:28:47;;;;;;;0.70;0.50;;;8.10;99.90;;;;;;4930340;29;20208;-70
2022/01/04 10:31:18;;;;;;;0.65;0.60;;;8.10;99.90;;;;;;4931715;29;20768;-71
2022/01/04 10:33:52;;;;;;;0.90;0.47;;;8.10;99.90;;;;;;4925606;29;20759;-72
2022/01/04 10:36:21;;;;;;;0.73;0.70;;;8.20;99.90;;;;;;4933928;29;20303;-72
2022/01/04 10:38:51;;;;;;;0.60;0.47;;;8.20;99.90;;;;;;4934957;29;20211;-71
2022/01/04 10:41:21;;;;;;;0.60;0.50;;;8.10;99.90;;;;;;4942214;29;20232;-73
2022/01/04 10:43:51;;;;;;;0.55;0.43;;;8.10;99.90;;;;;;4929611;29;20342;-72
2022/01/04 10:46:30;;;;;;;0.70;0.50;;;8.00;99.90;;;;;;4933135;29;20314;-72
2022/01/04 10:49:00;;;;;;;0.60;0.60;;;7.90;99.90;;;;;;4948113;28;20218;-71
2022/01/04 10:51:30;;;;;;;1.00;0.50;;;7.80;99.90;;;;;;4941523;29;20677;-72
2022/01/04 10:54:00;;;;;;;0.80;0.60;;;7.80;99.90;;;;;;4924756;29;20314;-72
2022/01/04 10:56:31;;;;;;;1.13;0.40;;;7.80;99.90;;;;;;4932656;29;20274;-72
2022/01/04 10:59:01;;;;;;;0.60;0.60;;;7.80;99.90;;;;;;4933663;29;20964;-69
2022/01/04 11:01:38;;;;;;;0.70;0.57;;;7.90;99.90;;;;;;4926689;29;20256;-71
2022/01/04 11:04:13;;;;;;;0.80;0.60;;;7.80;99.90;;;;;;4920830;29;20319;-73
2022/01/04 11:06:42;;;;;;;0.70;0.60;;;7.90;99.90;;;;;;4951275;29;20217;-72
2022/01/04 11:09:11;;;;;;;0.63;0.60;;;7.90;99.90;;;;;;4951516;29;20203;-71
2022/01/04 11:11:40;;;;;;;0.70;0.55;;;7.90;99.90;;;;;;4942514;29;20220;-71
2022/01/04 11:14:10;;;;;;;0.60;0.50;;;7.90;99.90;;;;;;4923924;29;20334;-72
2022/01/04 11:16:38;;;;;;;2.08;0.55;;;7.80;99.90;;;;;;4946647;29;20234;-72
2022/01/04 11:19:07;;;;;;;1.35;0.80;;;7.90;99.90;;;;;;4950940;29;20673;-72
2022/01/04 11:21:37;;;;;;;0.70;0.70;;;7.70;99.90;;;;;;4943089;29;20258;-71
2022/01/04 11:24:08;;;;;;;0.90;0.80;;;7.80;99.90;;;;;;4928970;29;20322;-71
2022/01/04 11:26:40;;;;;;;0.60;0.50;;;7.80;99.90;;;;;;4935289;29;20213;-72
2022/01/04 11:29:08;;;;;;;0.60;0.50;;;7.80;99.90;;;;;;4936337;29;20227;-72
2022/01/04 11:31:48;;;;;;;0.70;0.60;;;7.70;99.90;;;;;;4943035;29;20291;-73
2022/01/04 11:34:27;;;;;;;1.02;0.60;;;7.70;99.90;;;;;;4934025;29;20660;-71
2022/01/04 11:36:55;;;;;;;0.68;0.52;;;7.70;99.90;;;;;;4929111;29;20239;-72
2022/01/04 11:39:34;;;;;;;0.85;0.60;;;7.80;99.90;;;;;;4934821;29;20235;-72
2022/01/04 11:42:06;;;;;;;0.75;0.50;;;7.90;99.90;;;;;;4928487;29;21062;-72
2022/01/04 11:44:36;;;;;;;0.95;0.50;;;8.00;99.90;;;;;;4934618;29;20273;-71
2022/01/04 11:47:08;;;;;;;0.93;0.60;;;8.00;99.90;;;;;;4928586;29;20222;-71
2022/01/04 11:49:40;;;;;;;0.75;0.57;;;8.00;99.90;;;;;;4934982;29;20211;-72
2022/01/04 11:52:29;;;;;;;0.80;0.63;;;8.10;99.90;;;;;;4924825;28;20303;-72
2022/01/04 11:55:18;;;;;;;0.70;0.50;;;8.00;99.90;;;;;;4923024;29;20331;-70
2022/01/04 11:57:46;;;;;;;1.00;0.60;;;8.20;99.90;;;;;;4950418;29;20302;-72
2022/01/04 12:00:24;;;;;;;0.60;0.60;;;8.10;99.90;;;;;;4949937;28;20269;-72
2022/01/04 12:03:06;;;;;;;1.80;0.70;;;8.10;99.90;;;;;;4928078;29;20227;-71
2022/01/04 12:05:38;;;;;;;0.80;0.70;;;8.20;99.90;;;;;;4930203;29;20838;-72
2022/01/04 12:08:18;;;;;;;0.75;0.60;;;8.20;99.90;;;;;;4926364;29;20212;-73
2022/01/04 12:10:47;;;;;;;0.70;0.70;;;8.30;99.90;;;;;;4932072;29;20235;-72
2022/01/04 12:13:16;;;;;;;1.42;0.70;;;8.30;99.90;;;;;;4926532;29;20696;-72
2022/01/04 12:16:03;;;;;;;0.70;0.70;;;8.40;99.90;;;;;;4929164;29;20682;-72
2022/01/04 12:19:06;;;;;;;1.50;0.90;;;8.40;99.90;;;;;;4939502;29;20207;-72
2022/01/04 12:21:44;;;;;;;0.60;0.50;;;8.40;99.90;;;;;;4927913;29;20208;-72
2022/01/04 12:24:15;;;;;;;1.05;0.85;;;8.40;99.90;;;;;;4936124;29;20622;-72
2022/01/04 12:26:43;;;;;;;0.80;0.70;;;8.40;99.90;;;;;;4937172;29;20317;-71
2022/01/04 12:29:20;;;;;;;0.70;0.68;;;8.40;99.90;;;;;;4937350;29;20303;-71
2022/01/04 12:31:51;;;;;;;0.80;0.77;;;8.40;99.90;;;;;;4918477;29;20204;-72
2022/01/04 12:34:38;;;;;;;1.63;0.88;;;8.40;99.90;;;;;;4923222;29;20632;-71
2022/01/04 12:37:18;;;;;;;0.95;0.80;;;8.40;99.90;;;;;;4930667;29;20232;-72
2022/01/04 12:39:48;;;;;;;0.90;0.75;;;8.50;99.90;;;;;;4937868;29;20239;-71
2022/01/04 12:42:16;;;;;;;1.65;0.60;;;8.40;99.90;;;;;;4930585;28;20322;-70
2022/01/04 12:44:51;;;;;;;0.85;0.82;;;8.30;99.90;;;;;;4925384;29;20319;-71
2022/01/04 12:47:20;;;;;;;0.80;0.73;;;8.30;99.90;;;;;;4933070;29;20211;-70
2022/01/04 12:49:48;;;;;;;1.58;0.90;;;8.20;99.90;;;;;;4937656;29;20700;-71
2022/01/04 12:52:20;;;;;;;1.00;0.65;;;8.80;99.90;;;;;;4927686;29;20311;-71
2022/01/04 12:54:48;;;;;;;0.80;0.70;;;8.10;99.90;;;;;;4934949;29;20691;-72
2022/01/04 12:57:17;;;;;;;1.35;0.88;;;8.20;99.90;;;;;;4935586;29;20212;-71
2022/01/04 12:59:47;;;;;;;1.23;1.05;;;8.10;99.90;;;;;;4950804;29;20968;-70
2022/01/04 13:02:19;;;;;;;1.38;1.20;;;8.00;99.90;;;;;;4933002;29;20284;-71
2022/01/04 13:04:49;;;;;;;2.05;1.45;;;7.90;99.90;;;;;;4938113;29;20212;-70
2022/01/04 13:07:22;;;;;;;1.15;1.00;;;7.80;99.90;;;;;;4951625;29;20227;-71
2022/01/04 13:09:56;;;;;;;1.50;1.20;;;7.70;99.90;;;;;;4933387;29;20287;-70
2022/01/04 13:12:27;;;;;;;1.05;0.85;;;7.60;99.90;;;;;;4928014;29;20219;-71
2022/01/04 13:14:56;;;;;;;1.42;1.20;;;7.50;99.90;;;;;;4935256;29;20298;-71